Time,TemperatureF,DewpointF,PressureIn,WindDirection,WindDirectionDegrees,WindSpeedMPH,WindSpeedGustMPH,Humidity,HourlyPrecipIn,Conditions,Clouds,dailyrainin,SoftwareType,DateUTC
2013-06-01 00:01:00,66.0,54.1,29.89,SSW,210,2.0,0.0,44,0.67,,,2.91,meteohub,2013-06-01 05:01:00,
2013-06-01 00:06:00,66.0,53.2,29.89,WNW,292,0.0,4.0,44,0.33,,,0.00,meteohub,2013-06-01 05:06:00,
2013-06-01 00:11:00,66.0,51.6,29.89,NNE,33,0.0,4.0,44,0.21,,,0.04,meteohub,2013-06-01 05:11:00,
2013-06-01 00:16:00,66.0,51.8,29.86,NNE,33,0.0,4.0,44,0.21,,,0.04,meteohub,2013-06-01 05:16:00,
2013-06-01 00:21:00,66.0,52.0,29.86,NNE,33,0.0,0.0,45,0.21,,,0.04,meteohub,2013-06-01 05:21:00,
2013-06-01 00:26:00,66.0,52.5,29.86,NNE,33,0.0,2.0,45,0.17,,,0.04,meteohub,2013-06-01 05:26:00,
2013-06-01 00:31:00,66.2,52.7,29.89,SSW,205,0.0,2.0,45,0.17,,,0.08,meteohub,2013-06-01 05:31:00,
2013-06-01 00:36:00,66.2,52.5,29.89,SSW,205,0.0,3.0,45,0.17,,,0.08,meteohub,2013-06-01 05:36:00,
2013-06-01 00:41:00,66.2,51.6,29.89,SSW,205,0.0,3.0,45,0.21,,,0.13,meteohub,2013-06-01 05:41:00,
2013-06-01 00:46:00,66.2,51.6,29.89,SSW,205,0.0,0.0,45,0.17,,,0.13,meteohub,2013-06-01 05:46:00,
2013-06-01 00:51:00,66.2,52.5,29.89,SSW,205,0.0,0.0,45,0.17,,,0.13,meteohub,2013-06-01 05:51:00,
2013-06-01 00:57:00,66.0,52.5,29.89,SSW,205,0.0,0.0,46,0.17,,,0.13,meteohub,2013-06-01 05:57:00,
2013-06-01 01:02:00,66.0,52.5,29.89,South,179,0.0,0.0,46,0.17,,,0.17,meteohub,2013-06-01 06:02:00,
2013-06-01 01:07:00,66.0,52.5,29.89,South,179,0.0,0.0,46,0.17,,,0.17,meteohub,2013-06-01 06:07:00,
2013-06-01 01:12:00,65.8,52.5,29.89,South,179,0.0,0.0,47,0.12,,,0.17,meteohub,2013-06-01 06:12:00,
2013-06-01 01:17:00,66.0,51.6,29.89,South,179,0.0,0.0,47,0.12,,,0.17,meteohub,2013-06-01 06:17:00,
2013-06-01 01:22:00,66.0,52.2,29.89,ESE,116,0.0,0.0,48,0.12,,,0.17,meteohub,2013-06-01 06:22:00,
2013-06-01 01:31:00,65.8,52.3,29.86,ESE,116,0.0,0.0,48,0.13,,,0.21,meteohub,2013-06-01 06:31:00,
2013-06-01 01:37:00,65.8,52.5,29.86,ESE,116,0.0,0.0,48,0.13,,,0.21,meteohub,2013-06-01 06:37:00,
2013-06-01 01:42:00,65.8,52.5,29.86,SE,127,0.0,0.0,49,0.08,,,0.21,meteohub,2013-06-01 06:42:00,
2013-06-01 01:47:00,65.8,52.5,29.86,ESE,114,4.0,4.0,49,0.08,,,0.21,meteohub,2013-06-01 06:47:00,
2013-06-01 01:52:00,65.8,52.5,29.86,SE,128,5.0,5.0,49,0.08,,,0.21,meteohub,2013-06-01 06:52:00,
2013-06-01 01:57:00,65.8,52.5,29.86,East,99,0.0,7.0,49,0.08,,,0.21,meteohub,2013-06-01 06:57:00,
2013-06-01 02:02:00,65.8,52.5,29.80,ESE,106,0.0,8.0,50,0.08,,,0.25,meteohub,2013-06-01 07:02:00,
2013-06-01 02:07:00,65.8,52.5,29.80,ESE,108,0.0,8.0,51,0.08,,,0.25,meteohub,2013-06-01 07:07:00,
2013-06-01 02:12:00,65.7,53.1,29.80,ESE,117,0.0,8.0,52,0.08,,,0.25,meteohub,2013-06-01 07:12:00,
2013-06-01 02:17:00,65.7,53.2,29.80,SE,132,4.0,6.0,53,0.13,,,0.29,meteohub,2013-06-01 07:17:00,
2013-06-01 02:22:00,65.7,53.2,29.80,SSW,202,0.0,6.0,53,0.13,,,0.29,meteohub,2013-06-01 07:22:00,
2013-06-01 02:28:00,65.7,53.1,29.80,SE,128,2.0,8.0,54,0.13,,,0.29,meteohub,2013-06-01 07:28:00,
2013-06-01 02:33:00,65.7,53.1,29.77,ESE,118,5.0,9.0,55,0.12,,,0.33,meteohub,2013-06-01 07:33:00,
2013-06-01 02:38:00,65.7,53.1,29.77,ESE,119,0.0,9.0,57,0.12,,,0.33,meteohub,2013-06-01 07:38:00,
2013-06-01 02:43:00,65.5,53.1,29.77,South,174,4.0,9.0,58,0.12,,,0.33,meteohub,2013-06-01 07:43:00,
2013-06-01 02:48:00,65.5,53.1,29.74,ENE,66,0.0,8.0,59,0.12,,,0.33,meteohub,2013-06-01 07:48:00,
2013-06-01 02:53:00,65.5,53.2,29.74,SSW,204,0.0,6.0,59,0.12,,,0.33,meteohub,2013-06-01 07:53:00,
2013-06-01 02:58:00,65.5,53.2,29.74,ESE,121,0.0,6.0,60,0.08,,,0.33,meteohub,2013-06-01 07:58:00,
2013-06-01 03:03:00,65.5,53.2,29.74,SE,124,4.0,4.0,60,0.08,,,0.33,meteohub,2013-06-01 08:03:00,
2013-06-01 03:08:00,65.5,53.2,29.74,South,171,0.0,4.0,60,0.08,,,0.33,meteohub,2013-06-01 08:08:00,
2013-06-01 03:13:00,65.5,53.1,29.74,SSW,204,0.0,4.0,61,0.08,,,0.33,meteohub,2013-06-01 08:13:00,
2013-06-01 03:18:00,65.5,53.1,29.77,SW,227,0.0,4.0,61,0.04,,,0.33,meteohub,2013-06-01 08:18:00,
2013-06-01 03:23:00,65.5,53.1,29.77,SSW,205,0.0,4.0,62,0.04,,,0.33,meteohub,2013-06-01 08:23:00,
2013-06-01 03:28:00,65.5,53.1,29.77,South,183,0.0,4.0,62,0.04,,,0.33,meteohub,2013-06-01 08:28:00,
2013-06-01 03:33:00,65.5,53.1,29.80,South,176,0.0,4.0,63,0.00,,,0.33,meteohub,2013-06-01 08:33:00,
2013-06-01 03:38:00,65.5,53.1,29.80,ESE,104,0.0,4.0,63,0.00,,,0.33,meteohub,2013-06-01 08:38:00,
2013-06-01 03:43:00,65.5,53.1,29.80,NNW,327,0.0,4.0,63,0.00,,,0.33,meteohub,2013-06-01 08:43:00,
2013-06-01 03:48:00,65.5,53.1,29.80,SSW,211,0.0,3.0,63,0.00,,,0.33,meteohub,2013-06-01 08:48:00,
2013-06-01 03:54:00,65.5,52.9,29.80,SE,124,4.0,4.0,63,0.00,,,0.33,meteohub,2013-06-01 08:54:00,
2013-06-01 03:59:00,65.5,52.9,29.80,South,181,0.0,6.0,64,0.00,,,0.33,meteohub,2013-06-01 08:59:00,
2013-06-01 04:04:00,65.5,52.9,29.80,South,174,0.0,6.0,64,0.00,,,0.33,meteohub,2013-06-01 09:04:00,
2013-06-01 04:09:00,65.5,52.9,29.80,South,189,0.0,6.0,64,0.00,,,0.33,meteohub,2013-06-01 09:09:00,
2013-06-01 04:14:00,65.5,52.9,29.80,SSW,196,0.0,4.0,65,0.00,,,0.33,meteohub,2013-06-01 09:14:00,
2013-06-01 04:19:00,65.5,52.9,29.77,ESE,123,0.0,4.0,65,0.00,,,0.33,meteohub,2013-06-01 09:19:00,
2013-06-01 04:24:00,65.5,52.9,29.77,SE,137,4.0,4.0,65,0.04,,,0.37,meteohub,2013-06-01 09:24:00,
2013-06-01 04:29:00,65.5,53.2,29.77,SSE,152,0.0,6.0,65,0.04,,,0.37,meteohub,2013-06-01 09:29:00,
2013-06-01 04:34:00,65.5,53.2,29.77,South,178,4.0,6.0,65,0.04,,,0.37,meteohub,2013-06-01 09:34:00,
2013-06-01 04:39:00,65.5,53.2,29.77,South,173,0.0,8.0,66,0.04,,,0.37,meteohub,2013-06-01 09:39:00,
2013-06-01 04:44:00,65.5,53.2,29.77,SE,129,0.0,8.0,66,0.04,,,0.37,meteohub,2013-06-01 09:44:00,
2013-06-01 04:49:00,65.5,53.2,29.77,South,176,0.0,6.0,66,0.04,,,0.37,meteohub,2013-06-01 09:49:00,
2013-06-01 04:54:00,65.5,53.2,29.77,East,94,2.0,5.0,66,0.04,,,0.37,meteohub,2013-06-01 09:54:00,
2013-06-01 04:59:00,65.5,53.2,29.77,SSW,212,0.0,5.0,67,0.04,,,0.37,meteohub,2013-06-01 09:59:00,
2013-06-01 05:04:00,65.5,53.2,29.77,SSE,154,4.0,4.0,67,0.04,,,0.37,meteohub,2013-06-01 10:04:00,
2013-06-01 05:09:00,65.5,53.1,29.77,East,100,0.0,5.0,67,0.08,,,0.41,meteohub,2013-06-01 10:09:00,
2013-06-01 05:15:00,65.5,53.1,29.77,SSW,204,0.0,6.0,67,0.08,,,0.41,meteohub,2013-06-01 10:15:00,
2013-06-01 05:20:00,65.5,53.1,29.77,SE,134,4.0,6.0,68,0.04,,,0.41,meteohub,2013-06-01 10:20:00,
2013-06-01 05:25:00,65.3,53.1,29.77,ESE,120,5.0,6.0,68,0.04,,,0.41,meteohub,2013-06-01 10:25:00,
2013-06-01 05:30:00,65.3,53.1,29.77,East,99,0.0,9.0,68,0.04,,,0.41,meteohub,2013-06-01 10:30:00,
2013-06-01 05:35:00,65.3,53.1,29.74,South,189,0.0,8.0,68,0.08,,,0.46,meteohub,2013-06-01 10:35:00,
2013-06-01 05:40:00,65.3,53.1,29.74,SW,229,0.0,8.0,68,0.08,,,0.46,meteohub,2013-06-01 10:40:00,
2013-06-01 05:45:00,65.3,53.1,29.74,ESE,109,4.0,6.0,69,0.08,,,0.46,meteohub,2013-06-01 10:45:00,
2013-06-01 05:50:00,65.1,53.1,29.77,ESE,123,0.0,6.0,69,0.08,,,0.46,meteohub,2013-06-01 10:50:00,
2013-06-01 05:55:00,65.1,52.9,29.77,ESE,117,3.0,6.0,69,0.08,,,0.46,meteohub,2013-06-01 10:55:00,
2013-06-01 06:00:00,65.1,52.0,29.77,ESE,113,4.0,6.0,69,0.04,,,0.46,meteohub,2013-06-01 11:00:00,
2013-06-01 06:05:00,64.9,52.3,29.77,SSW,203,2.0,6.0,69,0.04,,,0.46,meteohub,2013-06-01 11:05:00,
2013-06-01 06:10:00,64.9,52.5,29.77,SW,214,2.0,6.0,69,0.04,,,0.46,meteohub,2013-06-01 11:10:00,
2013-06-01 06:15:00,64.9,52.5,29.77,SSW,213,0.0,5.0,69,0.04,,,0.46,meteohub,2013-06-01 11:15:00,
2013-06-01 06:20:00,64.9,52.5,29.80,SW,227,0.0,4.0,70,0.04,,,0.46,meteohub,2013-06-01 11:20:00,
2013-06-01 06:25:00,64.9,52.5,29.80,South,190,0.0,4.0,70,0.04,,,0.46,meteohub,2013-06-01 11:25:00,
2013-06-01 06:30:00,64.9,52.5,29.83,SSW,208,0.0,4.0,70,0.04,,,0.46,meteohub,2013-06-01 11:30:00,
2013-06-01 06:35:00,64.9,52.5,29.83,South,172,0.0,4.0,70,0.04,,,0.50,meteohub,2013-06-01 11:35:00,
2013-06-01 06:41:00,64.9,52.7,29.83,East,88,0.0,2.0,70,0.04,,,0.50,meteohub,2013-06-01 11:41:00,
2013-06-01 06:46:00,64.9,53.1,29.83,South,173,3.0,5.0,70,0.04,,,0.50,meteohub,2013-06-01 11:46:00,
2013-06-01 06:51:00,65.1,53.1,29.83,SSW,210,2.0,6.0,70,0.04,,,0.50,meteohub,2013-06-01 11:51:00,
2013-06-01 06:56:00,65.1,53.2,29.83,SSW,209,0.0,6.0,70,0.04,,,0.50,meteohub,2013-06-01 11:56:00,
2013-06-01 07:01:00,65.1,53.2,29.83,SSE,166,4.0,6.0,71,0.04,,,0.50,meteohub,2013-06-01 12:01:00,
2013-06-01 07:06:00,65.1,53.2,29.83,SSW,200,2.0,8.0,71,0.08,,,0.54,meteohub,2013-06-01 12:06:00,
2013-06-01 07:11:00,65.1,53.2,29.83,SSE,168,0.0,8.0,71,0.08,,,0.54,meteohub,2013-06-01 12:11:00,
2013-06-01 07:16:00,65.1,53.2,29.83,SSW,205,0.0,6.0,71,0.08,,,0.54,meteohub,2013-06-01 12:16:00,
2013-06-01 07:21:00,65.1,53.2,29.83,South,187,0.0,6.0,71,0.08,,,0.54,meteohub,2013-06-01 12:21:00,
2013-06-01 07:26:00,65.1,53.2,29.83,SSW,209,0.0,6.0,71,0.08,,,0.54,meteohub,2013-06-01 12:26:00,
2013-06-01 07:31:00,65.1,53.2,29.86,SE,142,0.0,3.0,71,0.13,,,0.58,meteohub,2013-06-01 12:31:00,
2013-06-01 07:36:00,65.1,53.2,29.86,SSW,192,0.0,3.0,71,0.08,,,0.58,meteohub,2013-06-01 12:36:00,
2013-06-01 07:41:00,65.1,53.2,29.86,South,189,0.0,4.0,71,0.08,,,0.58,meteohub,2013-06-01 12:41:00,
2013-06-01 07:46:00,64.9,53.2,29.89,SSW,213,0.0,4.0,71,0.12,,,0.62,meteohub,2013-06-01 12:46:00,
2013-06-01 07:51:00,64.9,53.2,29.89,East,91,0.0,4.0,71,0.17,,,0.67,meteohub,2013-06-01 12:51:00,
2013-06-01 07:56:00,64.9,53.2,29.89,ENE,75,0.0,4.0,71,0.17,,,0.67,meteohub,2013-06-01 12:56:00,
2013-06-01 08:01:00,64.9,53.2,29.86,SSE,163,0.0,6.0,71,0.17,,,0.70,meteohub,2013-06-01 13:01:00,
2013-06-01 08:07:00,64.9,53.2,29.86,SSW,199,3.0,6.0,71,0.17,,,0.70,meteohub,2013-06-01 13:07:00,
2013-06-01 08:12:00,64.9,53.2,29.86,SE,133,0.0,6.0,71,0.21,,,0.75,meteohub,2013-06-01 13:12:00,
2013-06-01 08:17:00,65.1,53.2,29.86,East,99,0.0,6.0,71,0.21,,,0.75,meteohub,2013-06-01 13:17:00,
2013-06-01 08:22:00,65.1,53.2,29.86,SE,140,3.0,6.0,71,0.25,,,0.79,meteohub,2013-06-01 13:22:00,
2013-06-01 08:27:00,65.1,53.2,29.86,ESE,112,0.0,6.0,71,0.25,,,0.79,meteohub,2013-06-01 13:27:00,
2013-06-01 08:32:00,65.1,53.2,29.86,NE,38,0.0,6.0,71,0.20,,,0.79,meteohub,2013-06-01 13:32:00,
2013-06-01 08:37:00,65.1,53.2,29.86,ESE,108,2.0,5.0,72,0.25,,,0.83,meteohub,2013-06-01 13:37:00,
2013-06-01 08:42:00,65.3,53.2,29.86,East,95,3.0,6.0,72,0.21,,,0.83,meteohub,2013-06-01 13:42:00,
2013-06-01 08:47:00,65.3,53.2,29.83,East,94,0.0,6.0,72,0.21,,,0.83,meteohub,2013-06-01 13:47:00,
2013-06-01 08:52:00,65.3,53.2,29.83,ESE,110,6.0,6.0,72,0.20,,,0.87,meteohub,2013-06-01 13:52:00,
2013-06-01 08:57:00,65.5,53.4,29.83,ENE,69,10.0,10.0,72,0.17,,,0.87,meteohub,2013-06-01 13:57:00,
2013-06-01 09:02:00,65.5,54.0,29.77,ESE,112,8.0,11.0,72,0.17,,,0.87,meteohub,2013-06-01 14:02:00,
2013-06-01 09:07:00,65.5,53.6,29.77,East,79,3.0,11.0,72,0.12,,,0.87,meteohub,2013-06-01 14:07:00,
2013-06-01 09:12:00,65.7,53.6,29.77,SE,128,6.0,11.0,72,0.12,,,0.87,meteohub,2013-06-01 14:12:00,
2013-06-01 09:17:00,65.7,53.6,29.77,ESE,115,5.0,8.0,72,0.12,,,0.87,meteohub,2013-06-01 14:17:00,
2013-06-01 09:22:00,65.7,53.8,29.77,South,173,4.0,8.0,72,0.08,,,0.87,meteohub,2013-06-01 14:22:00,
2013-06-01 09:28:00,65.8,53.8,29.77,SE,124,6.0,10.0,72,0.08,,,0.87,meteohub,2013-06-01 14:28:00,
2013-06-01 09:33:00,65.8,54.0,29.77,SSW,207,5.0,10.0,72,0.08,,,0.87,meteohub,2013-06-01 14:33:00,
2013-06-01 09:38:00,65.8,54.0,29.77,SSE,155,2.0,11.0,72,0.04,,,0.87,meteohub,2013-06-01 14:38:00,
2013-06-01 09:43:00,65.8,54.0,29.77,SSW,210,2.0,11.0,72,0.04,,,0.87,meteohub,2013-06-01 14:43:00,
2013-06-01 09:48:00,65.8,53.2,29.80,SSE,168,0.0,11.0,72,0.04,,,0.87,meteohub,2013-06-01 14:48:00,
2013-06-01 09:53:00,66.0,53.1,29.80,South,174,4.0,7.0,72,0.00,,,0.87,meteohub,2013-06-01 14:53:00,
2013-06-01 09:58:00,66.0,53.8,29.80,SE,125,6.0,6.0,72,0.00,,,0.87,meteohub,2013-06-01 14:58:00,
2013-06-01 10:03:00,66.0,53.8,29.77,ESE,117,5.0,8.0,71,0.00,,,0.87,meteohub,2013-06-01 15:03:00,
2013-06-01 10:08:00,66.0,53.8,29.77,SSW,205,4.0,8.0,71,0.00,,,0.87,meteohub,2013-06-01 15:08:00,
2013-06-01 10:13:00,66.2,54.0,29.77,South,181,4.0,8.0,71,0.00,,,0.87,meteohub,2013-06-01 15:13:00,
2013-06-01 10:18:00,66.4,54.0,29.80,South,177,3.0,8.0,71,0.00,,,0.87,meteohub,2013-06-01 15:18:00,
2013-06-01 10:23:00,66.4,54.0,29.80,SE,139,4.0,8.0,71,0.00,,,0.87,meteohub,2013-06-01 15:23:00,
2013-06-01 10:28:00,66.6,54.1,29.80,SSW,208,2.0,9.0,71,0.00,,,0.87,meteohub,2013-06-01 15:28:00,
2013-06-01 10:33:00,66.9,54.1,29.80,South,185,3.0,9.0,71,0.00,,,0.87,meteohub,2013-06-01 15:33:00,
2013-06-01 10:38:00,67.1,54.1,29.80,NE,51,5.0,9.0,71,0.00,,,0.87,meteohub,2013-06-01 15:38:00,
2013-06-01 10:44:00,67.3,54.1,29.80,WSW,243,4.0,9.0,71,0.00,,,0.87,meteohub,2013-06-01 15:44:00,
2013-06-01 10:49:00,67.5,54.1,29.77,ESE,116,5.0,6.0,70,0.00,,,0.87,meteohub,2013-06-01 15:49:00,
2013-06-01 10:54:00,67.5,54.1,29.77,SW,218,4.0,11.0,69,0.00,,,0.87,meteohub,2013-06-01 15:54:00,
2013-06-01 10:59:00,67.8,54.1,29.77,SW,218,0.0,11.0,69,0.00,,,0.87,meteohub,2013-06-01 15:59:00,
2013-06-01 11:04:00,68.0,54.3,29.80,SW,215,5.0,11.0,67,0.00,,,0.87,meteohub,2013-06-01 16:04:00,
2013-06-01 11:09:00,68.0,54.3,29.80,East,88,3.0,9.0,67,0.00,,,0.87,meteohub,2013-06-01 16:09:00,
2013-06-01 11:14:00,68.0,54.3,29.80,NE,55,0.0,9.0,67,0.00,,,0.87,meteohub,2013-06-01 16:14:00,
2013-06-01 11:19:00,67.8,54.9,29.80,SSE,168,0.0,9.0,66,0.00,,,0.87,meteohub,2013-06-01 16:19:00,
2013-06-01 11:24:00,67.6,54.3,29.80,WSW,239,0.0,6.0,66,0.00,,,0.87,meteohub,2013-06-01 16:24:00,
2013-06-01 11:29:00,67.6,54.9,29.80,SW,214,4.0,6.0,66,0.00,,,0.87,meteohub,2013-06-01 16:29:00,
2013-06-01 11:34:00,67.6,54.9,29.83,SSW,203,4.0,6.0,67,0.00,,,0.87,meteohub,2013-06-01 16:34:00,
2013-06-01 11:39:00,67.6,54.9,29.83,SSW,205,3.0,6.0,66,0.00,,,0.87,meteohub,2013-06-01 16:39:00,
2013-06-01 11:44:00,67.6,54.9,29.83,SE,127,0.0,6.0,66,0.00,,,0.87,meteohub,2013-06-01 16:44:00,
2013-06-01 11:49:00,67.8,54.9,29.83,WNW,284,2.0,6.0,66,0.00,,,0.87,meteohub,2013-06-01 16:49:00,
2013-06-01 11:54:00,67.8,54.9,29.83,SSW,196,3.0,6.0,64,0.00,,,0.87,meteohub,2013-06-01 16:54:00,
2013-06-01 11:59:00,68.0,54.9,29.83,ENE,77,4.0,7.0,62,0.00,,,0.87,meteohub,2013-06-01 16:59:00,
2013-06-01 12:04:00,68.2,54.9,29.80,SSW,197,3.0,7.0,62,0.00,,,0.87,meteohub,2013-06-01 17:04:00,
2013-06-01 12:10:00,68.4,54.9,29.80,South,189,5.0,7.0,59,0.00,,,0.87,meteohub,2013-06-01 17:10:00,
2013-06-01 12:15:00,68.7,54.9,29.80,ESE,121,0.0,6.0,58,0.00,,,0.87,meteohub,2013-06-01 17:15:00,
2013-06-01 12:20:00,68.9,54.9,29.80,SW,228,0.0,6.0,54,0.00,,,0.87,meteohub,2013-06-01 17:20:00,
2013-06-01 12:25:00,69.3,54.9,29.80,SW,217,0.0,6.0,51,0.00,,,0.87,meteohub,2013-06-01 17:25:00,
2013-06-01 12:30:00,69.4,54.9,29.80,WSW,246,0.0,5.0,50,0.00,,,0.87,meteohub,2013-06-01 17:30:00,
2013-06-01 12:35:00,69.8,55.0,29.83,ESE,116,0.0,5.0,47,0.00,,,0.87,meteohub,2013-06-01 17:35:00,
2013-06-01 12:40:00,70.2,55.6,29.83,WSW,240,0.0,4.0,46,0.00,,,0.87,meteohub,2013-06-01 17:40:00,
2013-06-01 12:45:00,70.3,55.8,29.83,SSW,198,2.0,6.0,43,0.00,,,0.87,meteohub,2013-06-01 17:45:00,
2013-06-01 12:50:00,70.3,55.2,29.83,SSW,209,0.0,6.0,41,0.00,,,0.87,meteohub,2013-06-01 17:50:00,
2013-06-01 12:55:00,70.5,55.2,29.83,SSW,207,0.0,6.0,39,0.00,,,0.87,meteohub,2013-06-01 17:55:00,
2013-06-01 13:00:00,70.5,55.2,29.83,SSW,199,0.0,4.0,37,0.00,,,0.87,meteohub,2013-06-01 18:00:00,
2013-06-01 13:05:00,70.2,55.8,29.83,SSW,194,2.0,6.0,32,0.00,,,0.87,meteohub,2013-06-01 18:05:00,
2013-06-01 13:10:00,70.0,55.8,29.83,WNW,297,0.0,6.0,29,0.00,,,0.87,meteohub,2013-06-01 18:10:00,
2013-06-01 13:15:00,70.0,55.2,29.83,SSW,212,0.0,6.0,28,0.00,,,0.87,meteohub,2013-06-01 18:15:00,
2013-06-01 13:20:00,69.8,55.2,29.80,SSW,210,0.0,5.0,26,0.00,,,0.87,meteohub,2013-06-01 18:20:00,
2013-06-01 13:25:00,69.8,55.4,29.80,SE,125,0.0,5.0,26,0.00,,,0.87,meteohub,2013-06-01 18:25:00,
2013-06-01 13:31:00,70.2,55.9,29.80,SW,224,0.0,5.0,26,0.00,,,0.87,meteohub,2013-06-01 18:31:00,
2013-06-01 13:36:00,70.9,56.1,29.80,SW,221,0.0,4.0,26,0.00,,,0.87,meteohub,2013-06-01 18:36:00,
2013-06-01 13:41:00,71.6,56.1,29.80,SSW,199,3.0,4.0,24,0.00,,,0.87,meteohub,2013-06-01 18:41:00,
2013-06-01 13:46:00,72.1,56.1,29.80,East,92,0.0,5.0,22,0.00,,,0.87,meteohub,2013-06-01 18:46:00,
2013-06-01 13:51:00,72.9,56.1,29.80,South,179,3.0,6.0,22,0.00,,,0.87,meteohub,2013-06-01 18:51:00,
2013-06-01 13:56:00,73.4,56.3,29.80,ESE,109,0.0,6.0,21,0.00,,,0.87,meteohub,2013-06-01 18:56:00,
2013-06-01 14:01:00,73.8,56.3,29.80,SSW,195,2.0,6.0,18,0.00,,,0.87,meteohub,2013-06-01 19:01:00,
2013-06-01 14:06:00,73.6,56.3,29.80,SSW,205,4.0,6.0,13,0.00,,,0.87,meteohub,2013-06-01 19:06:00,
2013-06-01 14:11:00,73.4,56.3,29.80,SSW,203,0.0,6.0,11,0.00,,,0.87,meteohub,2013-06-01 19:11:00,
2013-06-01 14:16:00,73.2,56.5,29.80,SSW,209,0.0,6.0,11,0.00,,,0.87,meteohub,2013-06-01 19:16:00,
2013-06-01 14:21:00,73.0,55.8,29.80,SSW,193,0.0,6.0,11,0.00,,,0.87,meteohub,2013-06-01 19:21:00,
2013-06-01 14:26:00,72.7,55.0,29.80,SW,215,4.0,6.0,11,0.00,,,0.87,meteohub,2013-06-01 19:26:00,
2013-06-01 14:31:00,72.3,55.6,29.80,SSW,197,3.0,6.0,11,0.00,,,0.87,meteohub,2013-06-01 19:31:00,
2013-06-01 14:36:00,72.3,55.6,29.80,SSW,192,3.0,6.0,14,0.00,,,0.87,meteohub,2013-06-01 19:36:00,
2013-06-01 14:42:00,72.3,55.6,29.80,SSW,199,0.0,5.0,14,0.00,,,0.87,meteohub,2013-06-01 19:42:00,
2013-06-01 14:47:00,72.5,55.6,29.80,SSW,201,5.0,5.0,14,0.00,,,0.87,meteohub,2013-06-01 19:47:00,
2013-06-01 14:52:00,72.9,55.6,29.80,SSW,210,0.0,5.0,14,0.00,,,0.87,meteohub,2013-06-01 19:52:00,
2013-06-01 14:57:00,73.4,55.6,29.80,SW,214,4.0,5.0,13,0.00,,,0.87,meteohub,2013-06-01 19:57:00,
2013-06-01 15:02:00,73.9,55.8,29.80,South,181,3.0,6.0,13,0.00,,,0.87,meteohub,2013-06-01 20:02:00,
2013-06-01 15:07:00,74.3,55.8,29.80,SSW,211,0.0,6.0,13,0.00,,,0.87,meteohub,2013-06-01 20:07:00,
2013-06-01 15:12:00,74.5,55.9,29.80,East,80,3.0,6.0,11,0.00,,,0.87,meteohub,2013-06-01 20:12:00,
2013-06-01 15:17:00,75.0,55.9,29.77,SW,215,2.0,6.0,11,0.00,,,0.87,meteohub,2013-06-01 20:17:00,
2013-06-01 15:22:00,75.9,55.9,29.77,WSW,240,3.0,5.0,10,0.00,,,0.87,meteohub,2013-06-01 20:22:00,
2013-06-01 15:27:00,76.5,56.1,29.77,SSW,211,3.0,5.0,10,0.00,,,0.87,meteohub,2013-06-01 20:27:00,
2013-06-01 15:32:00,76.5,56.1,29.80,SSE,160,3.0,6.0,10,0.00,,,0.87,meteohub,2013-06-01 20:32:00,
2013-06-01 15:37:00,76.5,56.1,29.80,South,191,0.0,6.0,10,0.00,,,0.87,meteohub,2013-06-01 20:37:00,
2013-06-01 15:42:00,76.6,55.6,29.80,ENE,76,3.0,6.0,10,0.00,,,0.87,meteohub,2013-06-01 20:42:00,
2013-06-01 15:47:00,76.5,54.9,29.80,SSW,208,0.0,6.0,10,0.00,,,0.87,meteohub,2013-06-01 20:47:00,
2013-06-01 15:52:00,76.3,55.2,29.80,South,182,3.0,6.0,8,0.00,,,0.87,meteohub,2013-06-01 20:52:00,
2013-06-01 15:57:00,75.9,55.2,29.80,ESE,112,0.0,6.0,8,0.00,,,0.87,meteohub,2013-06-01 20:57:00,
2013-06-01 16:03:00,76.6,55.4,29.80,WSW,243,0.0,6.0,10,0.00,,,0.87,meteohub,2013-06-01 21:03:00,
2013-06-01 16:08:00,77.2,55.6,29.80,SSW,196,2.0,6.0,10,0.00,,,0.87,meteohub,2013-06-01 21:08:00,
2013-06-01 16:13:00,77.9,55.6,29.80,SW,216,4.0,6.0,8,0.00,,,0.87,meteohub,2013-06-01 21:13:00,
2013-06-01 16:18:00,78.4,54.9,29.77,SSW,198,3.0,6.0,8,0.00,,,0.87,meteohub,2013-06-01 21:18:00,
2013-06-01 16:23:00,79.5,54.7,29.77,SSW,206,3.0,4.0,10,0.00,,,0.87,meteohub,2013-06-01 21:23:00,
2013-06-01 16:28:00,79.5,54.7,29.77,SSW,210,4.0,4.0,7,0.00,,,0.87,meteohub,2013-06-01 21:28:00,
2013-06-01 16:33:00,79.0,54.9,29.80,SSW,208,3.0,5.0,7,0.00,,,0.87,meteohub,2013-06-01 21:33:00,
2013-06-01 16:38:00,79.2,54.9,29.80,SSE,167,2.0,5.0,7,0.00,,,0.87,meteohub,2013-06-01 21:38:00,
2013-06-01 16:43:00,79.3,54.9,29.80,SW,214,4.0,5.0,7,0.00,,,0.87,meteohub,2013-06-01 21:43:00,
2013-06-01 16:48:00,79.0,54.1,29.80,WSW,243,4.0,5.0,7,0.00,,,0.87,meteohub,2013-06-01 21:48:00,
2013-06-01 16:53:00,78.8,54.7,29.80,WSW,238,2.0,6.0,7,0.00,,,0.87,meteohub,2013-06-01 21:53:00,
2013-06-01 16:58:00,78.6,54.7,29.80,South,180,3.0,7.0,8,0.00,,,0.87,meteohub,2013-06-01 21:58:00,
2013-06-01 17:03:00,78.8,54.9,29.77,WSW,253,3.0,7.0,7,0.00,,,0.87,meteohub,2013-06-01 22:03:00,
2013-06-01 17:08:00,79.2,55.0,29.77,SW,218,3.0,5.0,7,0.00,,,0.87,meteohub,2013-06-01 22:08:00,
2013-06-01 17:13:00,79.5,54.1,29.77,South,170,0.0,6.0,7,0.00,,,0.87,meteohub,2013-06-01 22:13:00,
2013-06-01 17:18:00,79.9,54.1,29.77,SSE,157,3.0,8.0,7,0.00,,,0.87,meteohub,2013-06-01 22:18:00,
2013-06-01 17:24:00,80.1,54.9,29.77,SW,226,2.0,8.0,7,0.00,,,0.87,meteohub,2013-06-01 22:24:00,
2013-06-01 17:29:00,80.2,55.0,29.77,WSW,255,0.0,8.0,7,0.00,,,0.87,meteohub,2013-06-01 22:29:00,
2013-06-01 17:34:00,80.2,55.0,29.77,WSW,244,4.0,6.0,7,0.00,,,0.87,meteohub,2013-06-01 22:34:00,
2013-06-01 17:39:00,79.7,53.6,29.77,SSW,194,4.0,6.0,7,0.00,,,0.87,meteohub,2013-06-01 22:39:00,
2013-06-01 17:44:00,78.6,54.1,29.77,West,261,3.0,6.0,8,0.00,,,0.87,meteohub,2013-06-01 22:44:00,
2013-06-01 17:49:00,78.6,54.3,29.77,South,175,3.0,6.0,8,0.00,,,0.87,meteohub,2013-06-01 22:49:00,
2013-06-01 17:54:00,79.3,54.3,29.77,WSW,252,3.0,6.0,7,0.00,,,0.87,meteohub,2013-06-01 22:54:00,
2013-06-01 17:59:00,79.3,54.3,29.77,South,191,2.0,6.0,7,0.00,,,0.87,meteohub,2013-06-01 22:59:00,
2013-06-01 18:04:00,78.6,54.1,29.77,SSE,149,5.0,5.0,8,0.00,,,0.87,meteohub,2013-06-01 23:04:00,
2013-06-01 18:09:00,78.3,54.1,29.77,SSW,200,3.0,5.0,8,0.00,,,0.87,meteohub,2013-06-01 23:09:00,
2013-06-01 18:14:00,78.1,54.3,29.77,SSW,206,0.0,5.0,8,0.00,,,0.87,meteohub,2013-06-01 23:14:00,
2013-06-01 18:19:00,77.9,55.0,29.77,South,188,3.0,5.0,8,0.00,,,0.87,meteohub,2013-06-01 23:19:00,
2013-06-01 18:24:00,78.1,55.0,29.77,South,176,0.0,4.0,8,0.00,,,0.87,meteohub,2013-06-01 23:24:00,
2013-06-01 18:29:00,78.8,53.8,29.77,SW,230,0.0,8.0,7,0.00,,,0.87,meteohub,2013-06-01 23:29:00,
2013-06-01 18:34:00,79.0,54.3,29.77,SW,227,3.0,8.0,7,0.00,,,0.87,meteohub,2013-06-01 23:34:00,
2013-06-01 18:39:00,78.3,54.9,29.77,SW,219,3.0,8.0,8,0.00,,,0.87,meteohub,2013-06-01 23:39:00,
2013-06-01 18:45:00,77.4,55.0,29.77,NW,320,4.0,8.0,8,0.00,,,0.87,meteohub,2013-06-01 23:45:00,
2013-06-01 18:50:00,77.5,55.2,29.77,NW,308,3.0,8.0,8,0.00,,,0.87,meteohub,2013-06-01 23:50:00,
2013-06-01 18:55:00,77.5,54.5,29.77,NNE,20,2.0,8.0,8,0.00,,,0.87,meteohub,2013-06-01 23:55:00,
2013-06-01 19:00:00,77.0,54.3,29.77,North,353,6.0,10.0,8,0.00,,,0.87,meteohub,2013-06-02 00:00:00,
2013-06-01 19:05:00,76.3,54.3,29.80,WNW,292,3.0,10.0,8,0.00,,,0.87,meteohub,2013-06-02 00:05:00,
2013-06-01 19:10:00,75.6,55.0,29.80,WSW,249,3.0,10.0,8,0.00,,,0.87,meteohub,2013-06-02 00:10:00,
2013-06-01 19:15:00,75.0,55.2,29.80,NNW,342,3.0,8.0,8,0.00,,,0.87,meteohub,2013-06-02 00:15:00,
2013-06-01 19:20:00,74.7,54.3,29.80,SSW,199,3.0,8.0,8,0.00,,,0.87,meteohub,2013-06-02 00:20:00,
2013-06-01 19:25:00,74.3,53.4,29.80,WNW,302,3.0,8.0,8,0.00,,,0.87,meteohub,2013-06-02 00:25:00,
2013-06-01 19:30:00,74.1,52.5,29.80,SW,223,3.0,8.0,8,0.00,,,0.87,meteohub,2013-06-02 00:30:00,
2013-06-01 19:35:00,74.1,52.2,29.80,WNW,300,4.0,7.0,8,0.00,,,0.87,meteohub,2013-06-02 00:35:00,
2013-06-01 19:40:00,73.8,51.4,29.80,SW,215,4.0,11.0,8,0.00,,,0.87,meteohub,2013-06-02 00:40:00,
2013-06-01 19:45:00,73.6,52.2,29.80,NW,318,6.0,11.0,8,0.00,,,0.87,meteohub,2013-06-02 00:45:00,
2013-06-01 19:50:00,73.4,53.1,29.83,SW,232,6.0,8.0,8,0.00,,,0.87,meteohub,2013-06-02 00:50:00,
2013-06-01 19:55:00,73.0,52.3,29.83,NNE,20,5.0,8.0,9,0.00,,,0.87,meteohub,2013-06-02 00:55:00,
2013-06-01 20:00:00,72.7,51.4,29.83,NW,318,0.0,8.0,9,0.00,,,0.87,meteohub,2013-06-02 01:00:00,
2013-06-01 20:06:00,72.3,52.2,29.83,SW,216,0.0,6.0,9,0.00,,,0.87,meteohub,2013-06-02 01:06:00,
2013-06-01 20:11:00,72.1,52.5,29.83,NW,307,4.0,6.0,9,0.00,,,0.87,meteohub,2013-06-02 01:11:00,
2013-06-01 20:16:00,72.0,52.2,29.83,WNW,300,3.0,8.0,9,0.00,,,0.87,meteohub,2013-06-02 01:16:00,
2013-06-01 20:21:00,71.8,51.3,29.83,West,271,2.0,8.0,9,0.00,,,0.87,meteohub,2013-06-02 01:21:00,
2013-06-01 20:26:00,71.4,52.0,29.83,South,190,2.0,8.0,9,0.00,,,0.87,meteohub,2013-06-02 01:26:00,
2013-06-01 20:31:00,71.1,52.9,29.83,West,271,3.0,5.0,9,0.00,,,0.87,meteohub,2013-06-02 01:31:00,
2013-06-01 20:36:00,70.9,53.1,29.83,South,184,0.0,4.0,9,0.00,,,0.87,meteohub,2013-06-02 01:36:00,
2013-06-01 20:41:00,70.7,52.2,29.83,WSW,252,0.0,4.0,9,0.00,,,0.87,meteohub,2013-06-02 01:41:00,
2013-06-01 20:46:00,70.3,52.0,29.83,NW,315,0.0,4.0,9,0.00,,,0.87,meteohub,2013-06-02 01:46:00,
2013-06-01 20:51:00,70.2,52.2,29.83,West,267,0.0,4.0,9,0.00,,,0.87,meteohub,2013-06-02 01:51:00,
2013-06-01 20:56:00,70.0,53.1,29.83,SW,233,0.0,4.0,9,0.00,,,0.87,meteohub,2013-06-02 01:56:00,
2013-06-01 21:01:00,70.0,52.2,29.86,SW,229,0.0,4.0,9,0.00,,,0.87,meteohub,2013-06-02 02:01:00,
2013-06-01 21:06:00,69.6,51.4,29.86,SW,235,0.0,4.0,10,0.00,,,0.87,meteohub,2013-06-02 02:06:00,
2013-06-01 21:11:00,69.3,52.2,29.86,SW,232,0.0,4.0,10,0.00,,,0.87,meteohub,2013-06-02 02:11:00,
2013-06-01 21:16:00,68.9,52.3,29.86,North,353,0.0,0.0,10,0.00,,,0.87,meteohub,2013-06-02 02:16:00,
2013-06-01 21:21:00,68.7,51.4,29.86,WSW,241,0.0,3.0,10,0.00,,,0.87,meteohub,2013-06-02 02:21:00,
2013-06-01 21:27:00,68.5,52.0,29.86,WSW,241,0.0,3.0,10,0.00,,,0.87,meteohub,2013-06-02 02:27:00,
2013-06-01 21:32:00,68.2,52.2,29.86,WSW,241,0.0,3.0,10,0.00,,,0.87,meteohub,2013-06-02 02:32:00,
2013-06-01 21:37:00,68.0,52.3,29.86,SSW,194,0.0,2.0,10,0.00,,,0.87,meteohub,2013-06-02 02:37:00,
2013-06-01 21:42:00,67.8,53.2,29.86,SSW,194,0.0,0.0,10,0.00,,,0.87,meteohub,2013-06-02 02:42:00,
2013-06-01 21:47:00,67.6,52.5,29.89,SSW,194,0.0,0.0,10,0.00,,,0.87,meteohub,2013-06-02 02:47:00,
2013-06-01 21:52:00,67.5,52.3,29.89,SSW,194,0.0,0.0,10,0.00,,,0.87,meteohub,2013-06-02 02:52:00,
2013-06-01 21:57:00,67.1,52.3,29.89,SSW,194,0.0,0.0,10,0.00,,,0.87,meteohub,2013-06-02 02:57:00,
2013-06-01 22:02:00,66.6,52.5,29.89,SSW,194,0.0,0.0,10,0.00,,,0.87,meteohub,2013-06-02 03:02:00,
2013-06-01 22:07:00,66.0,52.7,29.89,SSW,194,0.0,0.0,10,0.00,,,0.87,meteohub,2013-06-02 03:07:00,
2013-06-01 22:12:00,65.8,52.5,29.89,SSW,194,0.0,0.0,10,0.00,,,0.87,meteohub,2013-06-02 03:12:00,
2013-06-01 22:17:00,65.7,51.6,29.89,SSW,194,0.0,0.0,10,0.00,,,0.87,meteohub,2013-06-02 03:17:00,
2013-06-01 22:22:00,65.3,52.2,29.89,SSW,194,0.0,0.0,10,0.00,,,0.87,meteohub,2013-06-02 03:22:00,
2013-06-01 22:27:00,65.1,52.2,29.89,SSW,194,0.0,0.0,10,0.00,,,0.87,meteohub,2013-06-02 03:27:00,
2013-06-01 22:32:00,64.8,52.3,29.89,SSW,194,0.0,0.0,10,0.00,,,0.87,meteohub,2013-06-02 03:32:00,
2013-06-01 22:37:00,64.4,52.3,29.89,SSW,194,0.0,0.0,10,0.00,,,0.87,meteohub,2013-06-02 03:37:00,
2013-06-01 22:42:00,64.2,51.3,29.89,SSW,194,0.0,0.0,11,0.00,,,0.87,meteohub,2013-06-02 03:42:00,
2013-06-01 22:47:00,64.0,51.8,29.89,SSW,194,0.0,0.0,11,0.00,,,0.87,meteohub,2013-06-02 03:47:00,
2013-06-01 22:53:00,64.2,51.8,29.89,NNW,342,0.0,0.0,11,0.00,,,0.87,meteohub,2013-06-02 03:53:00,
2013-06-01 22:58:00,64.4,52.0,29.89,NW,314,0.0,0.0,10,0.00,,,0.87,meteohub,2013-06-02 03:58:00,
2013-06-01 23:01:00,64.6,52.0,29.89,NW,314,0.0,0.0,10,0.00,,,0.87,meteohub,2013-06-02 04:01:00,
2013-06-01 23:02:00,64.6,52.0,29.89,NW,314,0.0,0.0,10,0.00,,,0.87,meteohub,2013-06-02 04:02:00,
2013-06-01 23:03:00,64.8,52.5,29.89,NW,314,0.0,0.0,10,0.00,,,0.87,meteohub,2013-06-02 04:03:00,
2013-06-01 23:08:00,64.6,52.5,29.89,NW,314,0.0,0.0,10,0.00,,,0.87,meteohub,2013-06-02 04:08:00,
2013-06-01 23:13:00,64.6,52.0,29.89,NW,314,0.0,0.0,10,0.00,,,0.87,meteohub,2013-06-02 04:13:00,
2013-06-01 23:18:00,64.4,51.6,29.89,NW,314,0.0,0.0,10,0.00,,,0.87,meteohub,2013-06-02 04:18:00,
2013-06-01 23:23:00,64.2,52.2,29.89,NW,314,0.0,0.0,11,0.00,,,0.87,meteohub,2013-06-02 04:23:00,
2013-06-01 23:28:00,63.9,52.2,29.89,NW,314,0.0,0.0,11,0.00,,,0.87,meteohub,2013-06-02 04:28:00,
2013-06-01 23:33:00,63.7,52.3,29.89,NW,314,0.0,0.0,11,0.00,,,0.87,meteohub,2013-06-02 04:33:00,
2013-06-01 23:39:00,63.7,52.3,29.89,NW,314,0.0,0.0,11,0.00,,,0.87,meteohub,2013-06-02 04:39:00,
2013-06-01 23:44:00,63.3,52.5,29.89,NW,314,0.0,0.0,11,0.00,,,0.87,meteohub,2013-06-02 04:44:00,
2013-06-01 23:49:00,63.0,52.5,29.89,NW,314,0.0,0.0,11,0.00,,,0.87,meteohub,2013-06-02 04:49:00,
2013-06-01 23:54:00,63.0,52.5,29.89,NW,314,0.0,0.0,11,0.00,,,0.87,meteohub,2013-06-02 04:54:00,
2013-06-01 23:59:00,63.3,52.5,29.89,NW,314,0.0,0.0,11,0.00,,,0.87,meteohub,2013-06-02 04:59:00,